Airfield :
LOGIN :

Register | Disclaimer

   EN    FR    IT 

 










Legend :    VFR   Marginal VFR   IFR   Intensive IFR   Very Intensive IFR
Visi :
Ceiling :
>= 8 km
>= 3000ft
5 to 8 km
1000 to 3000 ft
1500m to 5 km
500 to 1000 ft
800 to 1500m
200 to 500 ft
< 800m
< 200 ft
Symbols :   Thunderstorms  Fog  Heavy snow  Heavy precipitations  Wind > 20 kt
SIGMETs :     Misc.  Thunderstorms  Icing  Turbulence  Mountain Waves  Volcanic Ashes






- Airport Elevation : 97 ft
- IATA code : EBJ


EKEB - Esbjerg

CURRENT METAR :
  • 260520Z AUTO 10007KT 6000 BKN005/// 16/14 Q1018

EXPIRED METARs :
  • 260450Z AUTO 09007KT 6000 BKN006/// 15/14 Q1018
  • 260420Z AUTO 10007KT 6000 OVC005/// 15/14 Q1018
  • 260350Z AUTO 11008KT 5000 OVC005/// 15/14 Q1018
  • 260320Z AUTO 11007KT 080V150 5000 BKN005/// 15/14 Q1018
  • 260250Z AUTO 10007KT 3700 BR BKN006/// 15/14 Q1018
  • 260220Z AUTO 09007KT 4200 BR NCD 14/14 Q1018
  • 260150Z AUTO 09005KT 5000 FEW010/// 15/14 Q1018
  • 260120Z AUTO 11006KT 6000 BKN011/// 16/15 Q1018
  • 260050Z AUTO 09005KT 6000 SCT011/// BKN021/// 16/14 Q1018

TAF TAF EKEB
Valid from the 26 at 04:00 until the 26 at 12:00 UTC


260321Z 2604/2612 12007KT 5000 BKN006
TEMPO 2604/2606 2000 BR BKN002
BECMG 2606/2608 FEW012
TEMPO 2608/2612 SHRA BKN020CB
PROB40
TEMPO 2609/2612 2500 TSRA



MET'MAP, your aeronautical weather chart ! - Copyright ORBIFLY December 2007 - Disclaimer

ORBIFLY MET'MAP TEAM :

Programming & Development : Alexandra Zaïnal
Original concept : Baudouin d'Aumeries
Technical & hardware support : Manuel Goepfert
Assistance : Marc-Olivier Méhu




SOURCES & CREDITS :

   NOAA